createdAt,value
2018-04-14T00:00:21.209Z,7.90
2018-04-14T00:02:49.781Z,7.90
2018-04-14T00:05:18.437Z,7.90
2018-04-14T00:07:47.008Z,7.80
2018-04-14T00:10:15.611Z,7.80
2018-04-14T00:12:44.162Z,7.70
2018-04-14T00:15:12.738Z,7.70
2018-04-14T00:17:41.329Z,7.70
2018-04-14T00:20:09.901Z,7.70
2018-04-14T00:22:38.521Z,7.60
2018-04-14T00:25:07.089Z,7.60
2018-04-14T00:27:35.694Z,7.60
2018-04-14T00:30:03.982Z,7.60
2018-04-14T00:32:33.312Z,7.60
2018-04-14T00:35:01.903Z,7.50
2018-04-14T00:37:30.480Z,7.50
2018-04-14T00:39:59.093Z,7.50
2018-04-14T00:42:27.641Z,7.40
2018-04-14T00:44:56.231Z,7.40
2018-04-14T00:47:24.821Z,7.40
2018-04-14T00:49:53.365Z,7.40
2018-04-14T00:52:22.736Z,7.20
2018-04-14T00:54:51.077Z,7.20
2018-04-14T00:57:19.688Z,7.20
2018-04-14T00:59:48.256Z,7.20
2018-04-14T01:02:16.849Z,7.20
2018-04-14T01:04:45.429Z,7.10
2018-04-14T01:07:13.999Z,7.10
2018-04-14T01:09:42.576Z,7.00
2018-04-14T01:12:11.154Z,7.10
2018-04-14T01:14:39.725Z,7.10
2018-04-14T01:17:08.270Z,7.10
2018-04-14T01:19:36.566Z,7.00
2018-04-14T01:22:04.972Z,7.00
2018-04-14T01:24:33.357Z,6.90
2018-04-14T01:27:01.973Z,6.90
2018-04-14T01:29:30.541Z,6.90
2018-04-14T01:31:58.844Z,6.80
2018-04-14T01:34:27.413Z,6.80
2018-04-14T01:36:55.978Z,6.80
2018-04-14T01:39:24.553Z,6.80
2018-04-14T01:41:52.939Z,6.80
2018-04-14T01:44:21.521Z,6.70
2018-04-14T01:46:50.130Z,6.70
2018-04-14T01:49:18.724Z,6.70
2018-04-14T01:51:47.268Z,6.60
2018-04-14T01:54:15.870Z,6.60
2018-04-14T01:56:44.444Z,6.60
2018-04-14T01:59:13.029Z,6.60
2018-04-14T02:01:41.613Z,6.60
2018-04-14T02:04:10.216Z,6.50
2018-04-14T02:06:38.753Z,6.40
2018-04-14T02:09:07.050Z,6.40
2018-04-14T02:11:35.473Z,6.40
2018-04-14T02:14:04.053Z,6.40
2018-04-14T02:16:32.641Z,6.40
2018-04-14T02:19:01.199Z,6.40
2018-04-14T02:21:29.814Z,6.50
2018-04-14T02:23:59.163Z,6.50
2018-04-14T02:26:27.766Z,6.50
2018-04-14T02:28:56.364Z,6.40
2018-04-14T02:31:24.949Z,6.40
2018-04-14T02:33:53.561Z,6.30
2018-04-14T02:36:22.909Z,6.20
2018-04-14T02:38:51.515Z,6.20
2018-04-14T02:41:20.066Z,6.20
2018-04-14T02:43:48.654Z,6.10
2018-04-14T02:46:17.229Z,6.10
2018-04-14T02:48:45.813Z,6.10
2018-04-14T02:51:14.410Z,6.00
2018-04-14T02:53:42.995Z,6.00
2018-04-14T02:56:11.598Z,6.00
2018-04-14T02:58:40.145Z,5.90
2018-04-14T03:01:08.764Z,6.00
2018-04-14T03:03:37.349Z,5.90
2018-04-14T03:06:05.922Z,5.90
2018-04-14T03:08:34.522Z,5.90
2018-04-14T03:11:03.099Z,6.00
2018-04-14T03:13:31.673Z,6.00
2018-04-14T03:16:00.238Z,6.00
2018-04-14T03:18:28.829Z,6.00
2018-04-14T03:20:57.393Z,5.90
2018-04-14T03:23:26.037Z,6.00
2018-04-14T03:25:54.744Z,6.00
2018-04-14T03:28:24.065Z,6.00
2018-04-14T03:30:52.650Z,5.90
2018-04-14T03:33:21.227Z,6.00
2018-04-14T03:35:49.834Z,6.00
2018-04-14T03:38:18.416Z,6.00
2018-04-14T03:40:46.984Z,6.10
2018-04-14T03:43:16.311Z,6.20
2018-04-14T03:45:44.854Z,6.20
2018-04-14T03:48:13.457Z,6.30
2018-04-14T03:50:42.028Z,6.30
2018-04-14T03:53:10.629Z,6.30
2018-04-14T03:55:39.236Z,6.30
2018-04-14T03:58:07.848Z,6.30
2018-04-14T04:00:36.447Z,6.30
2018-04-14T04:03:05.806Z,6.30
2018-04-14T04:05:34.417Z,6.20
2018-04-14T04:08:02.972Z,6.20
2018-04-14T04:10:31.654Z,6.20
2018-04-14T04:13:00.255Z,6.20
2018-04-14T04:15:28.860Z,6.20
2018-04-14T04:17:58.201Z,6.20
2018-04-14T04:23:38.262Z,6.20
2018-04-14T04:26:07.599Z,6.20
2018-04-14T04:28:36.129Z,6.20
2018-04-14T04:31:04.714Z,6.20
2018-04-14T04:33:33.252Z,6.20
2018-04-14T04:36:01.826Z,6.20
2018-04-14T04:38:30.394Z,6.30
2018-04-14T04:40:59.716Z,6.30
2018-04-14T04:43:28.278Z,6.30
2018-04-14T04:45:56.810Z,6.20
2018-04-14T04:48:26.158Z,6.10
2018-04-14T04:50:54.707Z,6.10
2018-04-14T04:53:23.291Z,6.10
2018-04-14T04:55:51.854Z,6.10
2018-04-14T04:58:20.425Z,6.00
2018-04-14T05:00:49.763Z,6.10
2018-04-14T05:03:18.298Z,6.10
2018-04-14T05:05:46.897Z,6.20
2018-04-14T05:08:16.416Z,6.40
2018-04-14T05:10:44.982Z,6.40
2018-04-14T05:13:14.302Z,6.40
2018-04-14T05:15:42.870Z,6.40
2018-04-14T05:18:12.201Z,6.50
2018-04-14T05:20:40.735Z,6.50
2018-04-14T05:23:09.316Z,6.60
2018-04-14T05:25:38.858Z,6.70
2018-04-14T05:28:11.855Z,6.80
2018-04-14T05:30:40.426Z,6.80
2018-04-14T05:33:16.593Z,6.80
2018-04-14T05:35:45.132Z,6.80
2018-04-14T05:38:13.696Z,7.00
2018-04-14T05:40:42.265Z,7.00
2018-04-14T05:43:11.561Z,7.10
2018-04-14T05:45:40.890Z,7.10
2018-04-14T05:48:09.424Z,7.10
2018-04-14T05:50:38.967Z,7.20
2018-04-14T05:53:07.513Z,7.20
2018-04-14T05:55:36.213Z,7.40
2018-04-14T05:58:05.633Z,7.80
2018-04-14T06:00:34.277Z,7.70
2018-04-14T06:03:02.905Z,7.90
2018-04-14T06:05:32.284Z,8.00
2018-04-14T06:08:00.935Z,8.00
2018-04-14T06:10:30.339Z,8.30
2018-04-14T06:12:58.951Z,8.30
2018-04-14T06:15:27.631Z,8.50
2018-04-14T06:17:56.254Z,8.50
2018-04-14T06:20:24.904Z,8.60
2018-04-14T06:22:54.643Z,8.40
2018-04-14T06:25:23.224Z,8.40
2018-04-14T06:27:51.814Z,8.40
2018-04-14T06:30:20.466Z,8.50
2018-04-14T06:32:48.811Z,8.70
2018-04-14T06:35:17.498Z,8.80
2018-04-14T06:37:46.895Z,9.00
2018-04-14T06:40:16.355Z,9.00
2018-04-14T06:42:45.419Z,9.00
2018-04-14T06:45:14.106Z,9.00
2018-04-14T06:47:42.803Z,9.10
2018-04-14T06:50:11.509Z,9.20
2018-04-14T06:52:42.652Z,9.30
2018-04-14T06:55:12.032Z,9.30
2018-04-14T06:57:40.703Z,9.40
2018-04-14T07:00:10.124Z,9.60
2018-04-14T07:02:38.892Z,9.50
2018-04-14T07:05:07.544Z,9.60
2018-04-14T07:07:35.986Z,9.70
2018-04-14T07:10:04.501Z,9.90
2018-04-14T07:12:33.137Z,9.90
2018-04-14T07:15:02.608Z,10.10
2018-04-14T07:17:31.244Z,10.10
2018-04-14T07:20:00.729Z,10.00
2018-04-14T07:22:30.257Z,9.90
2018-04-14T07:24:59.697Z,9.70
2018-04-14T07:27:28.310Z,9.70
2018-04-14T07:29:56.979Z,9.70
2018-04-14T07:32:25.993Z,9.60
2018-04-14T07:34:55.596Z,9.90
2018-04-14T07:37:24.179Z,9.80
2018-04-14T07:39:52.575Z,9.90
2018-04-14T07:42:21.556Z,10.00
2018-04-14T07:44:50.199Z,10.20
2018-04-14T07:47:19.588Z,10.50
2018-04-14T07:49:48.217Z,10.50
2018-04-14T07:52:16.940Z,10.70
2018-04-14T07:54:45.680Z,10.80
2018-04-14T07:57:18.760Z,10.80
2018-04-14T07:59:47.563Z,10.80
2018-04-14T08:02:22.530Z,10.90
2018-04-14T08:04:51.198Z,10.90
2018-04-14T08:07:21.014Z,11.00
2018-04-14T08:09:49.679Z,11.10
2018-04-14T08:12:19.105Z,11.50
2018-04-14T08:14:47.751Z,11.50
2018-04-14T08:17:19.641Z,11.50
2018-04-14T08:19:49.042Z,11.60
2018-04-14T08:22:18.464Z,11.70
2018-04-14T08:24:47.121Z,11.70
2018-04-14T08:27:15.755Z,11.80
2018-04-14T08:29:44.389Z,11.80
2018-04-14T08:32:13.021Z,11.90
2018-04-14T08:34:48.639Z,12.00
2018-04-14T08:37:17.347Z,12.20
2018-04-14T08:39:46.169Z,12.30
2018-04-14T08:42:14.792Z,12.40
2018-04-14T08:44:43.445Z,12.50
2018-04-14T08:47:12.056Z,12.70
2018-04-14T08:49:40.730Z,13.00
2018-04-14T08:52:12.275Z,13.40
2018-04-14T08:54:41.504Z,13.50
2018-04-14T08:57:10.165Z,13.70
2018-04-14T08:59:38.818Z,14.00
2018-04-14T09:02:11.163Z,14.50
2018-04-14T09:04:39.766Z,14.70
2018-04-14T09:07:09.249Z,15.40
2018-04-14T09:09:37.863Z,15.40
2018-04-14T09:12:07.299Z,15.90
2018-04-14T09:14:35.953Z,15.80
2018-04-14T09:17:05.360Z,16.30
2018-04-14T09:19:34.739Z,16.40
2018-04-14T09:22:03.480Z,16.40
2018-04-14T09:24:32.137Z,16.50
2018-04-14T09:27:00.739Z,16.60
2018-04-14T09:29:29.379Z,16.50
2018-04-14T09:31:58.038Z,16.70
2018-04-14T09:34:26.659Z,16.70
2018-04-14T09:36:55.318Z,16.80
2018-04-14T09:39:23.924Z,16.70
2018-04-14T09:41:52.826Z,16.90
2018-04-14T09:44:21.417Z,17.20
2018-04-14T09:46:50.027Z,17.40
2018-04-14T09:49:18.639Z,17.30
2018-04-14T09:51:47.259Z,17.50
2018-04-14T09:54:15.922Z,17.50
2018-04-14T09:56:44.546Z,17.60
2018-04-14T09:59:13.171Z,17.80
2018-04-14T10:01:47.927Z,18.20
2018-04-14T10:04:16.610Z,18.10
2018-04-14T10:06:45.218Z,18.30
2018-04-14T10:09:13.911Z,18.50
2018-04-14T10:11:42.574Z,18.60
2018-04-14T10:14:12.134Z,19.10
2018-04-14T10:16:42.131Z,19.00
2018-04-14T10:19:11.575Z,19.20
2018-04-14T10:21:40.176Z,19.20
2018-04-14T10:24:09.539Z,19.30
2018-04-14T10:26:38.193Z,19.20
2018-04-14T10:29:06.822Z,19.50
2018-04-14T10:31:45.667Z,19.60
2018-04-14T10:34:14.263Z,19.80
2018-04-14T10:39:37.330Z,20.20
2018-04-14T10:42:05.968Z,20.50
2018-04-14T10:44:34.581Z,21.00
2018-04-14T10:47:03.203Z,21.60
2018-04-14T10:49:31.854Z,22.00
2018-04-14T10:52:00.444Z,22.00
2018-04-14T10:54:29.099Z,22.30
2018-04-14T10:57:10.423Z,22.50
2018-04-14T10:59:42.202Z,22.50
2018-04-14T11:02:18.480Z,22.80
2018-04-14T11:04:51.235Z,23.50
2018-04-14T11:07:23.787Z,23.40
2018-04-14T11:09:52.443Z,23.60
2018-04-14T11:12:23.261Z,23.90
2018-04-14T11:14:51.922Z,24.30
2018-04-14T11:17:20.564Z,24.50
2018-04-14T11:20:11.411Z,24.60
2018-04-14T11:22:40.027Z,24.90
2018-04-14T11:25:08.708Z,25.90
2018-04-14T11:27:37.369Z,26.20
2018-04-14T11:30:06.117Z,26.50
2018-04-14T11:32:35.502Z,27.00
2018-04-14T11:37:34.841Z,27.30
2018-04-14T11:40:03.477Z,27.60
2018-04-14T11:42:32.119Z,27.50
2018-04-14T11:45:01.501Z,28.10
2018-04-14T11:47:30.128Z,28.10
2018-04-14T11:54:59.231Z,30.30
2018-04-14T11:57:29.959Z,29.90
2018-04-14T11:59:58.588Z,30.70
2018-04-14T12:02:27.180Z,29.80
2018-04-14T12:04:55.775Z,29.70
2018-04-14T12:07:24.990Z,28.50
2018-04-14T12:09:57.022Z,28.50
2018-04-14T12:12:25.667Z,29.40
2018-04-14T12:14:54.080Z,30.50
2018-04-14T12:17:23.571Z,29.70
2018-04-14T12:19:58.327Z,29.70
2018-04-14T12:22:28.543Z,31.20
2018-04-14T12:25:01.226Z,30.20
2018-04-14T12:29:59.471Z,31.10
2018-04-14T12:32:41.575Z,31.90
2018-04-14T12:35:10.186Z,31.60
2018-04-14T12:43:25.280Z,32.10
2018-04-14T12:45:53.875Z,31.70
2018-04-14T12:48:22.611Z,32.20
2018-04-14T12:50:51.287Z,32.90
2018-04-14T12:53:19.870Z,33.40
2018-04-14T12:55:48.442Z,33.60
2018-04-14T12:58:17.148Z,32.10
2018-04-14T13:00:46.501Z,32.40
2018-04-14T13:03:15.090Z,32.40
2018-04-14T13:05:43.743Z,31.70
2018-04-14T13:08:13.151Z,31.60
2018-04-14T13:10:41.745Z,31.60
2018-04-14T13:13:10.362Z,31.60
2018-04-14T13:15:38.986Z,30.30
2018-04-14T13:18:07.598Z,30.40
2018-04-14T13:20:36.987Z,32.00
2018-04-14T13:23:09.444Z,32.00
2018-04-14T13:25:38.051Z,31.90
2018-04-14T13:28:15.131Z,32.10
2018-04-14T13:30:43.753Z,32.00
2018-04-14T13:33:12.395Z,31.30
2018-04-14T13:35:40.971Z,31.40
2018-04-14T13:38:09.600Z,30.10
2018-04-14T13:40:38.220Z,28.30
2018-04-14T13:43:06.861Z,29.10
2018-04-14T13:48:34.351Z,31.70
2018-04-14T13:51:03.827Z,32.30
2018-04-14T13:53:32.459Z,32.40
2018-04-14T13:56:00.910Z,32.10
2018-04-14T13:58:37.157Z,32.60
2018-04-14T14:01:05.854Z,32.30
2018-04-14T14:12:35.193Z,31.90
2018-04-14T14:15:03.829Z,31.80
2018-04-14T14:17:33.040Z,30.40
2018-04-14T14:20:02.428Z,30.20
2018-04-14T14:22:31.028Z,30.20
2018-04-14T14:25:00.449Z,29.80
2018-04-14T14:27:29.281Z,29.80
2018-04-14T14:29:57.918Z,29.40
2018-04-14T14:32:27.718Z,29.50
2018-04-14T14:34:56.318Z,29.40
2018-04-14T14:37:27.138Z,28.80
2018-04-14T14:39:55.834Z,28.80
2018-04-14T14:42:24.427Z,28.20
2018-04-14T14:44:53.809Z,28.50
2018-04-14T14:47:37.541Z,28.50
2018-04-14T14:50:11.818Z,28.30
2018-04-14T14:52:40.595Z,28.20
2018-04-14T14:55:09.338Z,27.60
2018-04-14T14:57:38.045Z,28.20
2018-04-14T15:00:06.684Z,28.80
2018-04-14T15:02:35.415Z,28.30
2018-04-14T15:05:04.225Z,27.80
2018-04-14T15:07:33.082Z,28.40
2018-04-14T15:10:01.799Z,28.60
2018-04-14T15:12:30.437Z,28.60
2018-04-14T15:14:59.244Z,27.50
2018-04-14T15:17:27.908Z,26.20
2018-04-14T15:19:56.719Z,25.40
2018-04-14T15:22:26.436Z,24.70
2018-04-14T15:25:10.752Z,24.10
2018-04-14T15:27:49.041Z,23.50
2018-04-14T15:30:17.764Z,23.20
2018-04-14T15:32:46.610Z,22.80
2018-04-14T15:35:15.259Z,22.40
2018-04-14T15:37:43.943Z,22.20
2018-04-14T15:40:12.590Z,22.20
2018-04-14T15:42:42.031Z,22.10
2018-04-14T15:45:22.971Z,22.10
2018-04-14T15:47:51.970Z,22.00
2018-04-14T15:50:20.684Z,21.90
2018-04-14T15:52:49.448Z,21.90
2018-04-14T15:55:18.950Z,21.60
2018-04-14T15:57:47.644Z,21.60
2018-04-14T16:00:17.048Z,21.50
2018-04-14T16:02:46.459Z,21.40
2018-04-14T16:05:15.905Z,21.20
2018-04-14T16:07:44.653Z,21.20
2018-04-14T16:10:13.259Z,21.20
2018-04-14T16:12:41.903Z,21.10
2018-04-14T16:15:21.387Z,21.00
2018-04-14T16:17:50.861Z,21.00
2018-04-14T16:20:28.984Z,20.90
2018-04-14T16:22:58.393Z,20.80
2018-04-14T16:25:47.846Z,20.80
2018-04-14T16:28:16.478Z,20.70
2018-04-14T16:30:57.025Z,20.70
2018-04-14T16:33:26.431Z,20.50
2018-04-14T16:35:55.875Z,20.40
2018-04-14T16:38:24.500Z,20.40
2018-04-14T16:40:53.138Z,20.30
2018-04-14T16:43:21.826Z,20.10
2018-04-14T16:45:50.438Z,19.90
2018-04-14T16:48:19.068Z,19.80
2018-04-14T16:50:59.979Z,19.30
2018-04-14T16:53:28.615Z,19.30
2018-04-14T16:56:01.847Z,19.10
2018-04-14T16:58:31.222Z,18.80
2018-04-14T17:01:03.507Z,18.80
2018-04-14T17:03:32.183Z,18.70
2018-04-14T17:08:55.271Z,18.60
2018-04-14T17:11:23.929Z,18.50
2018-04-14T17:13:52.581Z,18.30
2018-04-14T17:16:21.182Z,18.00
2018-04-14T17:18:49.797Z,17.90
2018-04-14T17:21:18.385Z,17.80
2018-04-14T17:23:46.989Z,17.70
2018-04-14T17:26:15.575Z,17.60
2018-04-14T17:28:44.225Z,17.50
2018-04-14T17:31:12.914Z,17.30
2018-04-14T17:33:41.541Z,17.20
2018-04-14T17:36:10.134Z,17.00
2018-04-14T17:38:39.555Z,16.60
2018-04-14T17:41:08.965Z,16.40
2018-04-14T17:43:37.568Z,16.30
2018-04-14T17:46:06.201Z,16.20
2018-04-14T17:48:34.854Z,16.00
2018-04-14T17:51:03.593Z,15.90
2018-04-14T17:53:32.253Z,15.90
2018-04-14T17:56:00.903Z,15.80
2018-04-14T17:58:30.037Z,15.60
2018-04-14T18:00:59.347Z,15.40
2018-04-14T18:03:27.761Z,15.30
2018-04-14T18:05:57.154Z,15.00
2018-04-14T18:08:36.097Z,15.00
2018-04-14T18:11:05.505Z,15.00
2018-04-14T18:13:46.743Z,14.90
2018-04-14T18:16:15.296Z,14.90
2018-04-14T18:18:48.871Z,14.80
2018-04-14T18:21:18.315Z,14.60
2018-04-14T18:23:47.042Z,14.60
2018-04-14T18:26:15.710Z,14.50
2018-04-14T18:28:45.308Z,14.30
2018-04-14T18:31:13.948Z,14.30
2018-04-14T18:33:42.656Z,14.20
2018-04-14T18:36:11.315Z,14.10
2018-04-14T18:38:40.186Z,14.10
2018-04-14T18:41:08.945Z,13.90
2018-04-14T18:43:37.650Z,13.90
2018-04-14T18:46:06.264Z,13.70
2018-04-14T18:48:34.884Z,13.60
2018-04-14T18:51:03.550Z,13.50
2018-04-14T18:53:32.211Z,13.40
2018-04-14T18:56:00.862Z,13.30
2018-04-14T18:58:29.514Z,13.20
2018-04-14T19:01:05.803Z,13.20
2018-04-14T19:03:34.483Z,13.10
2018-04-14T19:06:03.913Z,13.00
2018-04-14T19:08:38.432Z,12.90
2018-04-14T19:11:07.085Z,12.90
2018-04-14T19:13:35.785Z,12.80
2018-04-14T19:16:04.429Z,12.60
2018-04-14T19:18:33.059Z,12.60
2018-04-14T19:21:03.691Z,12.40
2018-04-14T19:23:32.333Z,12.30
2018-04-14T19:26:00.989Z,12.30
2018-04-14T19:28:29.696Z,12.20
2018-04-14T19:30:58.313Z,12.20
2018-04-14T19:33:26.962Z,12.10
2018-04-14T19:35:55.684Z,12.00
2018-04-14T19:38:25.107Z,11.90
2018-04-14T19:40:59.982Z,11.80
2018-04-14T19:43:28.643Z,11.80
2018-04-14T19:46:02.046Z,11.70
2018-04-14T19:48:30.713Z,11.70
2018-04-14T19:50:59.450Z,11.70
2018-04-14T19:53:28.107Z,11.60
2018-04-14T19:55:57.063Z,11.50
2018-04-14T19:58:25.688Z,11.50
2018-04-14T20:00:54.383Z,11.40
2018-04-14T20:03:23.751Z,11.30
2018-04-14T20:05:52.389Z,11.30
2018-04-14T20:08:21.063Z,11.30
2018-04-14T20:10:49.721Z,11.30
2018-04-14T20:13:18.380Z,11.30
2018-04-14T20:15:47.581Z,11.30
2018-04-14T20:18:16.209Z,11.20
2018-04-14T20:20:44.879Z,11.20
2018-04-14T20:23:13.534Z,11.20
2018-04-14T20:25:42.136Z,11.10
2018-04-14T20:28:23.027Z,11.10
2018-04-14T20:30:51.663Z,11.00
2018-04-14T20:33:21.106Z,11.00
2018-04-14T20:35:49.725Z,10.90
2018-04-14T20:38:18.351Z,10.90
2018-04-14T20:40:47.001Z,10.90
2018-04-14T20:43:15.635Z,10.80
2018-04-14T20:45:44.463Z,10.80
2018-04-14T20:48:13.084Z,10.70
2018-04-14T20:50:41.700Z,10.70
2018-04-14T20:53:10.309Z,10.70
2018-04-14T20:55:38.979Z,10.70
2018-04-14T20:58:07.624Z,10.60
2018-04-14T21:00:36.212Z,10.60
2018-04-14T21:03:04.966Z,10.60
2018-04-14T21:05:33.609Z,10.60
2018-04-14T21:08:03.039Z,10.40
2018-04-14T21:10:31.676Z,10.40
2018-04-14T21:13:00.327Z,10.40
2018-04-14T21:15:28.980Z,10.30
2018-04-14T21:17:58.371Z,10.30
2018-04-14T21:20:26.981Z,10.30
2018-04-14T21:22:57.410Z,10.20
2018-04-14T21:25:26.083Z,10.20
2018-04-14T21:27:55.276Z,10.20
2018-04-14T21:30:24.687Z,10.10
2018-04-14T21:32:54.143Z,10.10
2018-04-14T21:35:22.882Z,10.10
2018-04-14T21:37:52.343Z,10.20
2018-04-14T21:40:20.964Z,10.20
2018-04-14T21:42:49.610Z,10.30
2018-04-14T21:45:18.269Z,10.30
2018-04-14T21:47:46.918Z,10.40
2018-04-14T21:50:15.530Z,10.40
2018-04-14T21:52:44.895Z,10.30
2018-04-14T21:55:13.542Z,10.30
2018-04-14T21:57:42.165Z,10.30
2018-04-14T22:00:10.207Z,10.40
2018-04-14T22:02:38.826Z,10.30
2018-04-14T22:05:07.451Z,10.30
2018-04-14T22:07:36.835Z,10.30
2018-04-14T22:10:06.528Z,10.30
2018-04-14T22:12:35.241Z,10.30
2018-04-14T22:15:03.567Z,10.30
2018-04-14T22:17:32.166Z,10.30
2018-04-14T22:20:00.852Z,10.30
2018-04-14T22:22:29.479Z,10.30
2018-04-14T22:24:58.093Z,10.40
2018-04-14T22:27:27.471Z,10.40
2018-04-14T22:29:56.056Z,10.30
2018-04-14T22:32:35.094Z,10.40
2018-04-14T22:35:03.710Z,10.40
2018-04-14T22:37:36.891Z,10.40
2018-04-14T22:40:05.682Z,10.30
2018-04-14T22:42:45.446Z,10.30
2018-04-14T22:45:14.099Z,10.30
2018-04-14T22:47:42.683Z,10.30
2018-04-14T22:50:22.045Z,10.30
2018-04-14T22:52:51.396Z,10.20
2018-04-14T22:55:20.035Z,10.20
2018-04-14T22:57:48.642Z,10.20
2018-04-14T23:00:17.553Z,10.20
2018-04-14T23:02:46.193Z,10.10
2018-04-14T23:05:14.786Z,10.10
2018-04-14T23:07:43.414Z,10.10
2018-04-14T23:10:11.979Z,10.10
2018-04-14T23:12:40.586Z,10.00
2018-04-14T23:15:09.170Z,10.00
2018-04-14T23:17:37.825Z,10.00
2018-04-14T23:20:07.209Z,10.00
2018-04-14T23:22:35.811Z,9.90
2018-04-14T23:25:05.239Z,10.00
2018-04-14T23:27:33.663Z,9.90
2018-04-14T23:30:02.267Z,10.00
2018-04-14T23:32:30.846Z,10.00
2018-04-14T23:34:59.479Z,10.00
2018-04-14T23:37:28.105Z,10.00
2018-04-14T23:39:56.703Z,10.00
2018-04-14T23:42:25.306Z,10.10
2018-04-14T23:44:54.722Z,10.10
2018-04-14T23:47:24.141Z,10.10
2018-04-14T23:49:55.560Z,10.10
2018-04-14T23:52:24.183Z,10.00
2018-04-14T23:54:57.169Z,10.00
2018-04-14T23:57:25.785Z,10.00
2018-04-14T23:59:54.390Z,10.10
